sensor_id;sensor_type;location;lat;lon;timestamp;pressure;altitude;pressure_sealevel;temperature;humidity
70833;BME280;58452;59.418;17.962;2023-03-12T00:00:20;99213.19;;;-8.25;69.62
70833;BME280;58452;59.418;17.962;2023-03-12T00:02:45;99214.00;;;-8.24;69.21
70833;BME280;58452;59.418;17.962;2023-03-12T00:05:11;99210.22;;;-8.33;69.13
70833;BME280;58452;59.418;17.962;2023-03-12T00:07:36;99212.31;;;-8.24;68.80
70833;BME280;58452;59.418;17.962;2023-03-12T00:10:06;99212.31;;;-8.24;69.08
70833;BME280;58452;59.418;17.962;2023-03-12T00:12:32;99210.91;;;-8.29;69.05
70833;BME280;58452;59.418;17.962;2023-03-12T00:14:57;99208.94;;;-8.43;69.42
70833;BME280;58452;59.418;17.962;2023-03-12T00:17:23;99216.31;;;-8.40;69.77
70833;BME280;58452;59.418;17.962;2023-03-12T00:19:52;99216.91;;;-8.33;69.87
70833;BME280;58452;59.418;17.962;2023-03-12T00:22:18;99214.13;;;-8.27;70.08
70833;BME280;58452;59.418;17.962;2023-03-12T00:24:50;99209.31;;;-8.32;69.35
70833;BME280;58452;59.418;17.962;2023-03-12T00:27:16;99210.09;;;-8.30;68.84
70833;BME280;58452;59.418;17.962;2023-03-12T00:29:41;99215.03;;;-8.28;68.90
70833;BME280;58452;59.418;17.962;2023-03-12T00:32:07;99214.81;;;-8.24;68.83
70833;BME280;58452;59.418;17.962;2023-03-12T00:34:32;99216.50;;;-8.24;69.02
70833;BME280;58452;59.418;17.962;2023-03-12T00:36:58;99214.19;;;-8.29;69.58
70833;BME280;58452;59.418;17.962;2023-03-12T00:39:23;99213.31;;;-8.28;69.98
70833;BME280;58452;59.418;17.962;2023-03-12T00:41:48;99209.19;;;-8.29;70.44
70833;BME280;58452;59.418;17.962;2023-03-12T00:44:14;99223.88;;;-8.21;70.14
70833;BME280;58452;59.418;17.962;2023-03-12T00:46:39;99220.50;;;-8.20;70.16
70833;BME280;58452;59.418;17.962;2023-03-12T00:49:05;99221.31;;;-8.40;68.97
70833;BME280;58452;59.418;17.962;2023-03-12T00:51:30;99217.66;;;-8.52;69.44
70833;BME280;58452;59.418;17.962;2023-03-12T00:53:55;99221.09;;;-8.34;69.55
70833;BME280;58452;59.418;17.962;2023-03-12T00:56:21;99208.06;;;-8.42;70.24
70833;BME280;58452;59.418;17.962;2023-03-12T00:58:46;99213.94;;;-8.43;70.42
70833;BME280;58452;59.418;17.962;2023-03-12T01:01:12;99212.59;;;-8.30;70.57
70833;BME280;58452;59.418;17.962;2023-03-12T01:03:37;99217.06;;;-8.18;70.46
70833;BME280;58452;59.418;17.962;2023-03-12T01:06:04;99206.81;;;-8.12;70.49
70833;BME280;58452;59.418;17.962;2023-03-12T01:08:30;99210.31;;;-8.16;70.56
70833;BME280;58452;59.418;17.962;2023-03-12T01:10:55;99212.06;;;-8.18;70.11
70833;BME280;58452;59.418;17.962;2023-03-12T01:13:21;99211.06;;;-8.14;69.54
70833;BME280;58452;59.418;17.962;2023-03-12T01:15:46;99212.94;;;-8.19;69.60
70833;BME280;58452;59.418;17.962;2023-03-12T01:18:12;99223.34;;;-8.48;71.38
70833;BME280;58452;59.418;17.962;2023-03-12T01:20:37;99223.34;;;-8.48;71.88
70833;BME280;58452;59.418;17.962;2023-03-12T01:23:04;99219.53;;;-8.36;71.33
70833;BME280;58452;59.418;17.962;2023-03-12T01:25:30;99226.84;;;-8.32;72.12
70833;BME280;58452;59.418;17.962;2023-03-12T01:27:55;99218.94;;;-8.23;71.42
70833;BME280;58452;59.418;17.962;2023-03-12T01:30:21;99217.19;;;-8.21;71.32
70833;BME280;58452;59.418;17.962;2023-03-12T01:32:47;99217.09;;;-8.38;68.91
70833;BME280;58452;59.418;17.962;2023-03-12T01:35:13;99216.44;;;-8.43;68.81
70833;BME280;58452;59.418;17.962;2023-03-12T01:37:38;99213.22;;;-8.45;68.44
70833;BME280;58452;59.418;17.962;2023-03-12T01:40:04;99216.44;;;-8.43;68.64
70833;BME280;58452;59.418;17.962;2023-03-12T01:42:30;99215.63;;;-8.44;68.72
70833;BME280;58452;59.418;17.962;2023-03-12T01:44:58;99223.38;;;-8.50;69.20
70833;BME280;58452;59.418;17.962;2023-03-12T01:47:25;99225.75;;;-8.47;68.82
70833;BME280;58452;59.418;17.962;2023-03-12T01:49:52;99225.03;;;-8.49;68.89
70833;BME280;58452;59.418;17.962;2023-03-12T01:52:31;99230.06;;;-8.50;68.92
70833;BME280;58452;59.418;17.962;2023-03-12T01:55:02;99236.84;;;-8.52;68.70
70833;BME280;58452;59.418;17.962;2023-03-12T01:57:44;99234.69;;;-8.61;69.01
70833;BME280;58452;59.418;17.962;2023-03-12T02:00:18;99235.56;;;-8.62;69.21
70833;BME280;58452;59.418;17.962;2023-03-12T02:02:45;99236.19;;;-8.57;68.78
70833;BME280;58452;59.418;17.962;2023-03-12T02:08:03;99248.28;;;-8.68;69.29
70833;BME280;58452;59.418;17.962;2023-03-12T02:10:29;99251.28;;;-8.59;69.27
70833;BME280;58452;59.418;17.962;2023-03-12T02:12:55;99253.94;;;-8.63;69.19
70833;BME280;58452;59.418;17.962;2023-03-12T02:15:20;99250.44;;;-8.59;69.55
70833;BME280;58452;59.418;17.962;2023-03-12T02:17:46;99253.28;;;-8.68;69.09
70833;BME280;58452;59.418;17.962;2023-03-12T02:22:40;99255.78;;;-8.68;70.98
70833;BME280;58452;59.418;17.962;2023-03-12T02:25:40;99262.19;;;-8.61;70.92
70833;BME280;58452;59.418;17.962;2023-03-12T02:28:09;99254.56;;;-8.58;70.69
70833;BME280;58452;59.418;17.962;2023-03-12T02:30:38;99260.09;;;-8.50;70.16
70833;BME280;58452;59.418;17.962;2023-03-12T02:33:07;99259.88;;;-8.44;70.61
70833;BME280;58452;59.418;17.962;2023-03-12T02:35:33;99261.13;;;-8.34;70.55
70833;BME280;58452;59.418;17.962;2023-03-12T02:37:59;99269.38;;;-8.32;69.92
70833;BME280;58452;59.418;17.962;2023-03-12T02:42:56;99272.91;;;-8.17;70.39
70833;BME280;58452;59.418;17.962;2023-03-12T02:45:23;99267.47;;;-8.27;69.78
70833;BME280;58452;59.418;17.962;2023-03-12T02:47:49;99274.97;;;-8.47;71.25
70833;BME280;58452;59.418;17.962;2023-03-12T02:50:15;99275.91;;;-8.50;72.99
70833;BME280;58452;59.418;17.962;2023-03-12T02:52:41;99279.63;;;-8.38;73.09
70833;BME280;58452;59.418;17.962;2023-03-12T02:55:06;99277.78;;;-8.33;72.79
70833;BME280;58452;59.418;17.962;2023-03-12T02:57:32;99286.34;;;-8.40;72.08
70833;BME280;58452;59.418;17.962;2023-03-12T03:00:06;99284.25;;;-8.29;72.23
70833;BME280;58452;59.418;17.962;2023-03-12T03:02:36;99290.25;;;-8.13;71.84
70833;BME280;58452;59.418;17.962;2023-03-12T03:05:02;99292.38;;;-8.24;72.17
70833;BME280;58452;59.418;17.962;2023-03-12T03:07:27;99298.75;;;-8.17;72.44
70833;BME280;58452;59.418;17.962;2023-03-12T03:09:53;99304.75;;;-8.21;71.98
70833;BME280;58452;59.418;17.962;2023-03-12T03:12:18;99304.72;;;-8.19;72.10
70833;BME280;58452;59.418;17.962;2023-03-12T03:14:44;99305.66;;;-8.02;71.47
70833;BME280;58452;59.418;17.962;2023-03-12T03:17:09;99309.81;;;-8.01;70.80
70833;BME280;58452;59.418;17.962;2023-03-12T03:19:34;99311.19;;;-7.94;70.76
70833;BME280;58452;59.418;17.962;2023-03-12T03:22:00;99316.31;;;-7.97;70.44
70833;BME280;58452;59.418;17.962;2023-03-12T03:24:25;99316.19;;;-7.94;70.80
70833;BME280;58452;59.418;17.962;2023-03-12T03:26:51;99320.63;;;-8.00;71.32
70833;BME280;58452;59.418;17.962;2023-03-12T03:29:16;99326.59;;;-8.24;72.66
70833;BME280;58452;59.418;17.962;2023-03-12T03:31:42;99325.09;;;-8.28;72.66
70833;BME280;58452;59.418;17.962;2023-03-12T03:34:07;99329.53;;;-8.35;72.75
70833;BME280;58452;59.418;17.962;2023-03-12T03:36:33;99330.88;;;-8.48;73.57
70833;BME280;58452;59.418;17.962;2023-03-12T03:38:58;99335.09;;;-8.50;73.72
70833;BME280;58452;59.418;17.962;2023-03-12T03:41:23;99334.66;;;-8.38;73.62
70833;BME280;58452;59.418;17.962;2023-03-12T03:43:50;99333.53;;;-8.31;73.52
70833;BME280;58452;59.418;17.962;2023-03-12T03:46:16;99339.91;;;-8.24;73.82
70833;BME280;58452;59.418;17.962;2023-03-12T03:48:41;99332.41;;;-8.24;73.33
70833;BME280;58452;59.418;17.962;2023-03-12T03:51:08;99337.94;;;-8.16;73.19
70833;BME280;58452;59.418;17.962;2023-03-12T03:53:34;99340.00;;;-8.05;73.02
70833;BME280;58452;59.418;17.962;2023-03-12T03:56:13;99350.44;;;-8.16;73.10
70833;BME280;58452;59.418;17.962;2023-03-12T03:58:38;99356.47;;;-8.21;73.06
70833;BME280;58452;59.418;17.962;2023-03-12T04:01:04;99359.47;;;-8.12;73.15
70833;BME280;58452;59.418;17.962;2023-03-12T04:03:30;99354.59;;;-7.95;72.42
70833;BME280;58452;59.418;17.962;2023-03-12T04:05:58;99350.63;;;-7.78;72.07
70833;BME280;58452;59.418;17.962;2023-03-12T04:08:24;99364.22;;;-7.64;71.04
70833;BME280;58452;59.418;17.962;2023-03-12T04:10:50;99368.97;;;-7.58;70.44
70833;BME280;58452;59.418;17.962;2023-03-12T04:13:16;99367.97;;;-7.54;70.06
70833;BME280;58452;59.418;17.962;2023-03-12T04:15:49;99362.91;;;-7.52;69.04
70833;BME280;58452;59.418;17.962;2023-03-12T04:18:16;99365.91;;;-7.64;68.31
70833;BME280;58452;59.418;17.962;2023-03-12T04:20:41;99381.56;;;-7.59;68.83
70833;BME280;58452;59.418;17.962;2023-03-12T04:23:07;99378.47;;;-7.66;68.62
70833;BME280;58452;59.418;17.962;2023-03-12T04:25:32;99379.78;;;-7.77;68.66
70833;BME280;58452;59.418;17.962;2023-03-12T04:27:58;99375.28;;;-7.69;68.68
70833;BME280;58452;59.418;17.962;2023-03-12T04:30:23;99386.13;;;-7.69;68.52
70833;BME280;58452;59.418;17.962;2023-03-12T04:32:50;99386.94;;;-7.68;68.47
70833;BME280;58452;59.418;17.962;2023-03-12T04:35:15;99381.53;;;-7.79;68.59
70833;BME280;58452;59.418;17.962;2023-03-12T04:37:41;99387.94;;;-7.72;68.28
70833;BME280;58452;59.418;17.962;2023-03-12T04:40:07;99391.81;;;-7.65;68.07
70833;BME280;58452;59.418;17.962;2023-03-12T04:42:34;99391.00;;;-7.66;68.22
70833;BME280;58452;59.418;17.962;2023-03-12T04:45:01;99396.31;;;-7.73;68.05
70833;BME280;58452;59.418;17.962;2023-03-12T04:47:26;99403.94;;;-7.76;68.13
70833;BME280;58452;59.418;17.962;2023-03-12T04:49:52;99411.31;;;-7.94;68.14
70833;BME280;58452;59.418;17.962;2023-03-12T04:52:17;99408.81;;;-7.94;69.24
70833;BME280;58452;59.418;17.962;2023-03-12T04:54:43;99403.44;;;-7.84;69.56
70833;BME280;58452;59.418;17.962;2023-03-12T04:57:08;99405.59;;;-7.75;69.21
70833;BME280;58452;59.418;17.962;2023-03-12T04:59:34;99402.22;;;-7.74;69.35
70833;BME280;58452;59.418;17.962;2023-03-12T05:01:59;99410.94;;;-7.84;70.53
70833;BME280;58452;59.418;17.962;2023-03-12T05:04:25;99411.59;;;-7.79;70.67
70833;BME280;58452;59.418;17.962;2023-03-12T05:06:51;99413.84;;;-7.73;70.69
70833;BME280;58452;59.418;17.962;2023-03-12T05:09:16;99433.06;;;-7.96;73.02
70833;BME280;58452;59.418;17.962;2023-03-12T05:11:42;99435.75;;;-8.22;75.35
70833;BME280;58452;59.418;17.962;2023-03-12T05:14:09;99433.25;;;-8.22;76.30
70833;BME280;58452;59.418;17.962;2023-03-12T05:16:35;99426.38;;;-8.17;76.99
70833;BME280;58452;59.418;17.962;2023-03-12T05:19:00;99436.81;;;-8.06;77.51
70833;BME280;58452;59.418;17.962;2023-03-12T05:21:26;99438.06;;;-7.96;77.44
70833;BME280;58452;59.418;17.962;2023-03-12T05:23:52;99444.25;;;-7.82;77.64
70833;BME280;58452;59.418;17.962;2023-03-12T05:26:20;99442.28;;;-7.74;77.95
70833;BME280;58452;59.418;17.962;2023-03-12T05:28:46;99441.22;;;-7.69;77.58
70833;BME280;58452;59.418;17.962;2023-03-12T05:31:13;99435.03;;;-7.60;77.80
70833;BME280;58452;59.418;17.962;2023-03-12T05:33:39;99437.28;;;-7.54;77.64
70833;BME280;58452;59.418;17.962;2023-03-12T05:36:05;99438.75;;;-7.49;77.33
70833;BME280;58452;59.418;17.962;2023-03-12T05:38:30;99436.88;;;-7.44;77.52
70833;BME280;58452;59.418;17.962;2023-03-12T05:40:57;99446.59;;;-7.36;77.15
70833;BME280;58452;59.418;17.962;2023-03-12T05:43:24;99450.34;;;-7.26;77.16
70833;BME280;58452;59.418;17.962;2023-03-12T05:45:49;99455.25;;;-7.23;77.05
70833;BME280;58452;59.418;17.962;2023-03-12T05:48:15;99454.22;;;-7.19;76.71
70833;BME280;58452;59.418;17.962;2023-03-12T05:50:41;99452.19;;;-7.09;76.63
70833;BME280;58452;59.418;17.962;2023-03-12T05:53:06;99458.06;;;-7.10;76.40
70833;BME280;58452;59.418;17.962;2023-03-12T05:55:38;99459.50;;;-7.05;76.56
70833;BME280;58452;59.418;17.962;2023-03-12T05:58:05;99468.50;;;-7.01;76.15
70833;BME280;58452;59.418;17.962;2023-03-12T06:00:31;99465.22;;;-7.01;76.53
70833;BME280;58452;59.418;17.962;2023-03-12T06:02:57;99467.50;;;-6.97;76.33
70833;BME280;58452;59.418;17.962;2023-03-12T06:05:23;99473.28;;;-6.95;76.42
70833;BME280;58452;59.418;17.962;2023-03-12T06:07:49;99478.88;;;-6.88;76.30
70833;BME280;58452;59.418;17.962;2023-03-12T06:10:14;99486.44;;;-6.89;76.23
70833;BME280;58452;59.418;17.962;2023-03-12T06:12:40;99490.41;;;-6.84;76.07
70833;BME280;58452;59.418;17.962;2023-03-12T06:15:06;99498.66;;;-6.82;76.24
70833;BME280;58452;59.418;17.962;2023-03-12T06:17:32;99500.25;;;-6.79;76.21
70833;BME280;58452;59.418;17.962;2023-03-12T06:19:57;99505.81;;;-6.73;76.48
70833;BME280;58452;59.418;17.962;2023-03-12T06:22:24;99510.75;;;-6.71;76.12
70833;BME280;58452;59.418;17.962;2023-03-12T06:24:49;99509.06;;;-6.71;76.13
70833;BME280;58452;59.418;17.962;2023-03-12T06:27:15;99511.38;;;-6.66;76.13
70833;BME280;58452;59.418;17.962;2023-03-12T06:29:41;99512.63;;;-6.56;76.13
70833;BME280;58452;59.418;17.962;2023-03-12T06:32:07;99506.69;;;-6.54;75.92
70833;BME280;58452;59.418;17.962;2023-03-12T06:34:32;99513.25;;;-6.51;75.98
70833;BME280;58452;59.418;17.962;2023-03-12T06:36:58;99521.53;;;-6.49;76.32
70833;BME280;58452;59.418;17.962;2023-03-12T06:39:24;99525.66;;;-6.48;76.31
70833;BME280;58452;59.418;17.962;2023-03-12T06:41:49;99528.66;;;-6.40;76.75
70833;BME280;58452;59.418;17.962;2023-03-12T06:44:15;99530.03;;;-6.33;76.76
70833;BME280;58452;59.418;17.962;2023-03-12T06:46:40;99541.31;;;-6.23;76.82
70833;BME280;58452;59.418;17.962;2023-03-12T06:49:08;99542.81;;;-6.19;77.58
70833;BME280;58452;59.418;17.962;2023-03-12T06:51:33;99544.16;;;-6.12;77.47
70833;BME280;58452;59.418;17.962;2023-03-12T06:54:00;99539.81;;;-6.08;77.78
70833;BME280;58452;59.418;17.962;2023-03-12T06:56:27;99542.16;;;-6.04;77.91
70833;BME280;58452;59.418;17.962;2023-03-12T06:58:54;99545.28;;;-5.99;78.49
70833;BME280;58452;59.418;17.962;2023-03-12T07:01:20;99546.63;;;-5.91;78.73
70833;BME280;58452;59.418;17.962;2023-03-12T07:03:45;99558.81;;;-5.84;78.06
70833;BME280;58452;59.418;17.962;2023-03-12T07:06:13;99561.88;;;-5.77;78.92
70833;BME280;58452;59.418;17.962;2023-03-12T07:08:39;99560.84;;;-5.73;78.43
70833;BME280;58452;59.418;17.962;2023-03-12T07:11:04;99565.75;;;-5.70;78.32
70833;BME280;58452;59.418;17.962;2023-03-12T07:13:30;99572.13;;;-5.63;78.76
70833;BME280;58452;59.418;17.962;2023-03-12T07:15:55;99575.69;;;-5.50;78.76
70833;BME280;58452;59.418;17.962;2023-03-12T07:18:21;99581.94;;;-5.40;78.56
70833;BME280;58452;59.418;17.962;2023-03-12T07:20:46;99585.66;;;-5.30;78.35
70833;BME280;58452;59.418;17.962;2023-03-12T07:23:12;99587.88;;;-5.24;78.84
70833;BME280;58452;59.418;17.962;2023-03-12T07:25:39;99592.34;;;-5.12;78.39
70833;BME280;58452;59.418;17.962;2023-03-12T07:28:06;99594.47;;;-5.03;78.44
70833;BME280;58452;59.418;17.962;2023-03-12T07:30:32;99599.03;;;-4.94;78.19
70833;BME280;58452;59.418;17.962;2023-03-12T07:33:02;99610.28;;;-4.83;78.04
70833;BME280;58452;59.418;17.962;2023-03-12T07:35:28;99617.63;;;-4.79;78.28
70833;BME280;58452;59.418;17.962;2023-03-12T07:37:54;99615.06;;;-4.77;78.28
70833;BME280;58452;59.418;17.962;2023-03-12T07:40:20;99618.13;;;-4.72;78.40
70833;BME280;58452;59.418;17.962;2023-03-12T07:42:45;99618.66;;;-4.66;78.08
70833;BME280;58452;59.418;17.962;2023-03-12T07:45:11;99608.97;;;-4.56;77.93
70833;BME280;58452;59.418;17.962;2023-03-12T07:47:36;99618.59;;;-4.47;77.27
70833;BME280;58452;59.418;17.962;2023-03-12T07:50:02;99620.44;;;-4.51;77.84
70833;BME280;58452;59.418;17.962;2023-03-12T07:52:27;99617.69;;;-4.46;77.27
70833;BME280;58452;59.418;17.962;2023-03-12T07:54:53;99623.69;;;-4.31;77.29
70833;BME280;58452;59.418;17.962;2023-03-12T07:57:21;99629.22;;;-4.25;76.88
70833;BME280;58452;59.418;17.962;2023-03-12T07:59:46;99621.78;;;-4.26;76.48
70833;BME280;58452;59.418;17.962;2023-03-12T08:02:12;99617.41;;;-4.23;76.41
70833;BME280;58452;59.418;17.962;2023-03-12T08:04:38;99629.94;;;-4.06;76.61
70833;BME280;58452;59.418;17.962;2023-03-12T08:07:03;99628.03;;;-4.01;76.17
70833;BME280;58452;59.418;17.962;2023-03-12T08:09:28;99626.06;;;-3.96;76.24
70833;BME280;58452;59.418;17.962;2023-03-12T08:11:54;99623.25;;;-3.89;76.06
70833;BME280;58452;59.418;17.962;2023-03-12T08:14:19;99621.63;;;-3.90;76.03
70833;BME280;58452;59.418;17.962;2023-03-12T08:16:45;99624.97;;;-3.90;76.23
70833;BME280;58452;59.418;17.962;2023-03-12T08:19:10;99635.84;;;-3.89;76.07
70833;BME280;58452;59.418;17.962;2023-03-12T08:21:36;99630.06;;;-3.91;75.78
70833;BME280;58452;59.418;17.962;2023-03-12T08:24:02;99628.59;;;-3.96;75.67
70833;BME280;58452;59.418;17.962;2023-03-12T08:26:27;99632.47;;;-4.06;76.07
70833;BME280;58452;59.418;17.962;2023-03-12T08:28:53;99640.09;;;-4.07;76.16
70833;BME280;58452;59.418;17.962;2023-03-12T08:31:18;99643.44;;;-4.07;76.05
70833;BME280;58452;59.418;17.962;2023-03-12T08:33:44;99643.88;;;-3.99;75.66
70833;BME280;58452;59.418;17.962;2023-03-12T08:36:11;99649.28;;;-4.06;75.81
70833;BME280;58452;59.418;17.962;2023-03-12T08:38:37;99649.44;;;-4.09;76.24
70833;BME280;58452;59.418;17.962;2023-03-12T08:41:02;99654.88;;;-4.17;76.78
70833;BME280;58452;59.418;17.962;2023-03-12T08:43:28;99654.66;;;-4.12;77.27
70833;BME280;58452;59.418;17.962;2023-03-12T08:45:58;99655.09;;;-4.21;77.18
70833;BME280;58452;59.418;17.962;2023-03-12T08:48:24;99656.72;;;-4.20;77.19
70833;BME280;58452;59.418;17.962;2023-03-12T08:50:50;99652.03;;;-4.11;77.37
70833;BME280;58452;59.418;17.962;2023-03-12T08:53:16;99657.50;;;-4.03;76.49
70833;BME280;58452;59.418;17.962;2023-03-12T08:55:42;99663.16;;;-3.98;76.55
70833;BME280;58452;59.418;17.962;2023-03-12T08:58:08;99665.44;;;-3.93;76.43
70833;BME280;58452;59.418;17.962;2023-03-12T09:00:33;99665.06;;;-3.85;76.42
70833;BME280;58452;59.418;17.962;2023-03-12T09:02:59;99670.03;;;-3.68;75.93
70833;BME280;58452;59.418;17.962;2023-03-12T09:05:24;99671.09;;;-3.72;75.45
70833;BME280;58452;59.418;17.962;2023-03-12T09:07:52;99671.19;;;-3.58;75.35
70833;BME280;58452;59.418;17.962;2023-03-12T09:10:17;99674.13;;;-3.50;75.43
70833;BME280;58452;59.418;17.962;2023-03-12T09:12:43;99677.09;;;-3.42;74.91
70833;BME280;58452;59.418;17.962;2023-03-12T09:15:09;99678.56;;;-3.38;74.91
70833;BME280;58452;59.418;17.962;2023-03-12T09:17:35;99684.16;;;-3.33;74.94
70833;BME280;58452;59.418;17.962;2023-03-12T09:20:02;99674.66;;;-3.28;74.63
70833;BME280;58452;59.418;17.962;2023-03-12T09:22:31;99686.88;;;-3.20;74.58
70833;BME280;58452;59.418;17.962;2023-03-12T09:24:56;99697.78;;;-3.20;74.26
70833;BME280;58452;59.418;17.962;2023-03-12T09:27:22;99687.97;;;-3.26;74.84
70833;BME280;58452;59.418;17.962;2023-03-12T09:29:47;99698.44;;;-3.16;74.58
70833;BME280;58452;59.418;17.962;2023-03-12T09:32:13;99694.03;;;-3.13;74.44
70833;BME280;58452;59.418;17.962;2023-03-12T09:34:40;99704.03;;;-3.11;74.59
70833;BME280;58452;59.418;17.962;2023-03-12T09:37:06;99707.53;;;-2.98;74.25
70833;BME280;58452;59.418;17.962;2023-03-12T09:39:31;99703.78;;;-2.75;73.58
70833;BME280;58452;59.418;17.962;2023-03-12T09:41:57;99708.97;;;-2.78;72.57
70833;BME280;58452;59.418;17.962;2023-03-12T09:44:33;99710.28;;;-2.71;73.97
70833;BME280;58452;59.418;17.962;2023-03-12T09:47:19;99711.25;;;-2.74;73.23
70833;BME280;58452;59.418;17.962;2023-03-12T09:49:54;99724.63;;;-2.72;73.47
70833;BME280;58452;59.418;17.962;2023-03-12T09:52:39;99716.53;;;-2.63;72.65
70833;BME280;58452;59.418;17.962;2023-03-12T09:55:11;99731.06;;;-2.66;72.56
70833;BME280;58452;59.418;17.962;2023-03-12T09:57:42;99738.78;;;-2.69;72.64
70833;BME280;58452;59.418;17.962;2023-03-12T10:00:19;99736.28;;;-2.85;72.56
70833;BME280;58452;59.418;17.962;2023-03-12T10:03:47;99733.44;;;-2.79;72.58
70833;BME280;58452;59.418;17.962;2023-03-12T10:05:45;99730.06;;;-2.64;71.97
70833;BME280;58452;59.418;17.962;2023-03-12T10:08:41;99734.88;;;-2.59;71.05
70833;BME280;58452;59.418;17.962;2023-03-12T10:13:46;99741.22;;;-2.68;71.71
70833;BME280;58452;59.418;17.962;2023-03-12T10:25:07;99748.06;;;-2.54;70.84
70833;BME280;58452;59.418;17.962;2023-03-12T10:27:36;99750.91;;;-2.44;70.48
70833;BME280;58452;59.418;17.962;2023-03-12T10:30:13;99758.81;;;-2.35;70.09
70833;BME280;58452;59.418;17.962;2023-03-12T10:32:48;99756.66;;;-2.27;69.96
70833;BME280;58452;59.418;17.962;2023-03-12T10:35:20;99758.47;;;-2.29;70.14
70833;BME280;58452;59.418;17.962;2023-03-12T10:38:00;99759.56;;;-2.19;69.16
70833;BME280;58452;59.418;17.962;2023-03-12T10:40:30;99761.97;;;-2.02;69.68
70833;BME280;58452;59.418;17.962;2023-03-12T10:42:56;99759.63;;;-1.90;69.75
70833;BME280;58452;59.418;17.962;2023-03-12T10:45:27;99755.19;;;-2.01;68.39
70833;BME280;58452;59.418;17.962;2023-03-12T10:48:01;99755.28;;;-2.03;68.18
70833;BME280;58452;59.418;17.962;2023-03-12T10:50:29;99751.72;;;-1.84;68.64
70833;BME280;58452;59.418;17.962;2023-03-12T10:53:15;99753.91;;;-1.50;68.37
70833;BME280;58452;59.418;17.962;2023-03-12T10:55:56;99750.13;;;-1.57;66.35
70833;BME280;58452;59.418;17.962;2023-03-12T10:58:24;99758.91;;;-1.49;65.97
70833;BME280;58452;59.418;17.962;2023-03-12T11:00:57;99764.13;;;-1.52;66.71
70833;BME280;58452;59.418;17.962;2023-03-12T11:03:24;99768.69;;;-1.72;66.09
70833;BME280;58452;59.418;17.962;2023-03-12T11:05:55;99770.72;;;-1.63;64.97
70833;BME280;58452;59.418;17.962;2023-03-12T11:08:26;99777.66;;;-1.67;65.72
70833;BME280;58452;59.418;17.962;2023-03-12T11:10:53;99771.38;;;-1.45;65.81
70833;BME280;58452;59.418;17.962;2023-03-12T11:13:35;99791.16;;;-1.10;65.27
70833;BME280;58452;59.418;17.962;2023-03-12T11:18:39;99783.50;;;-1.51;63.48
70833;BME280;58452;59.418;17.962;2023-03-12T11:23:35;99788.81;;;-1.55;63.20
70833;BME280;58452;59.418;17.962;2023-03-12T11:26:17;99785.28;;;-1.38;62.32
70833;BME280;58452;59.418;17.962;2023-03-12T11:28:47;99787.53;;;-1.20;61.55
70833;BME280;58452;59.418;17.962;2023-03-12T11:31:35;99787.91;;;-1.26;60.42
70833;BME280;58452;59.418;17.962;2023-03-12T11:34:09;99793.13;;;-0.86;60.02
70833;BME280;58452;59.418;17.962;2023-03-12T11:36:48;99792.97;;;-1.26;58.64
70833;BME280;58452;59.418;17.962;2023-03-12T11:53:19;99789.44;;;-0.81;53.39
70833;BME280;58452;59.418;17.962;2023-03-12T12:04:19;99802.13;;;0.12;53.45
70833;BME280;58452;59.418;17.962;2023-03-12T12:09:35;99802.66;;;-0.22;49.25
70833;BME280;58452;59.418;17.962;2023-03-12T12:15:06;99798.97;;;0.09;47.44
70833;BME280;58452;59.418;17.962;2023-03-12T12:21:07;99806.78;;;0.06;49.25
70833;BME280;58452;59.418;17.962;2023-03-12T12:26:28;99812.75;;;0.44;49.13
70833;BME280;58452;59.418;17.962;2023-03-12T12:29:47;99812.03;;;0.67;48.73
70833;BME280;58452;59.418;17.962;2023-03-12T12:35:52;99804.84;;;0.61;47.85
70833;BME280;58452;59.418;17.962;2023-03-12T12:38:48;99811.75;;;0.84;45.91
70833;BME280;58452;59.418;17.962;2023-03-12T12:41:19;99800.13;;;1.06;47.37
70833;BME280;58452;59.418;17.962;2023-03-12T12:43:49;99809.25;;;1.21;45.35
70833;BME280;58452;59.418;17.962;2023-03-12T12:46:31;99813.03;;;1.03;45.24
70833;BME280;58452;59.418;17.962;2023-03-12T12:51:38;99809.13;;;2.17;46.85
70833;BME280;58452;59.418;17.962;2023-03-12T12:54:28;99800.22;;;2.12;44.17
70833;BME280;58452;59.418;17.962;2023-03-12T13:02:30;99811.97;;;1.90;43.60
70833;BME280;58452;59.418;17.962;2023-03-12T13:04:58;99816.31;;;1.88;44.00
70833;BME280;58452;59.418;17.962;2023-03-12T13:09:54;99815.69;;;1.98;44.38
70833;BME280;58452;59.418;17.962;2023-03-12T13:18:27;99814.00;;;1.85;44.14
70833;BME280;58452;59.418;17.962;2023-03-12T13:23:46;99812.88;;;2.24;44.10
70833;BME280;58452;59.418;17.962;2023-03-12T13:26:36;99827.38;;;2.00;43.23
70833;BME280;58452;59.418;17.962;2023-03-12T13:31:45;99817.78;;;2.04;43.16
70833;BME280;58452;59.418;17.962;2023-03-12T13:37:01;99818.69;;;2.03;43.11
70833;BME280;58452;59.418;17.962;2023-03-12T13:39:34;99822.19;;;2.02;43.02
70833;BME280;58452;59.418;17.962;2023-03-12T13:44:50;99817.84;;;1.67;43.97
70833;BME280;58452;59.418;17.962;2023-03-12T13:47:21;99816.91;;;1.92;42.81
70833;BME280;58452;59.418;17.962;2023-03-12T13:49:57;99824.75;;;1.41;43.95
70833;BME280;58452;59.418;17.962;2023-03-12T13:52:40;99818.25;;;1.25;44.07
70833;BME280;58452;59.418;17.962;2023-03-12T14:00:38;99819.44;;;0.83;45.64
70833;BME280;58452;59.418;17.962;2023-03-12T14:05:51;99817.19;;;1.04;45.91
70833;BME280;58452;59.418;17.962;2023-03-12T14:16:44;99817.19;;;1.16;44.76
70833;BME280;58452;59.418;17.962;2023-03-12T14:19:17;99819.59;;;1.18;45.61
70833;BME280;58452;59.418;17.962;2023-03-12T14:21:46;99811.81;;;1.44;44.41
70833;BME280;58452;59.418;17.962;2023-03-12T14:24:27;99816.66;;;1.60;44.77
70833;BME280;58452;59.418;17.962;2023-03-12T14:26:57;99817.13;;;1.65;43.71
70833;BME280;58452;59.418;17.962;2023-03-12T14:29:37;99814.50;;;1.90;44.04
70833;BME280;58452;59.418;17.962;2023-03-12T14:32:05;99809.59;;;1.40;43.54
70833;BME280;58452;59.418;17.962;2023-03-12T14:34:45;99824.50;;;1.21;43.78
70833;BME280;58452;59.418;17.962;2023-03-12T14:37:24;99828.38;;;1.14;43.56
70833;BME280;58452;59.418;17.962;2023-03-12T14:39:54;99819.44;;;0.95;43.33
70833;BME280;58452;59.418;17.962;2023-03-12T14:42:33;99824.34;;;0.73;43.30